sensor_id;sensor_type;location;lat;lon;timestamp;pressure;altitude;pressure_sealevel;temperature;humidity
61571;BME280;47463;49.884;10.010;2023-06-26T00:00:01;101670;;;17.2;67
61571;BME280;47463;49.884;10.010;2023-06-26T00:05:01;101670;;;17.1;68
61571;BME280;47463;49.884;10.010;2023-06-26T00:10:01;101660;;;17.1;68
61571;BME280;47463;49.884;10.010;2023-06-26T00:15:01;101660;;;17;68
61571;BME280;47463;49.884;10.010;2023-06-26T00:20:01;101660;;;16.9;69
61571;BME280;47463;49.884;10.010;2023-06-26T00:25:01;101660;;;16.8;69
61571;BME280;47463;49.884;10.010;2023-06-26T00:30:01;101660;;;16.7;70
61571;BME280;47463;49.884;10.010;2023-06-26T00:35:01;101670;;;16.7;70
61571;BME280;47463;49.884;10.010;2023-06-26T00:40:01;101650;;;16.6;70
61571;BME280;47463;49.884;10.010;2023-06-26T00:45:01;101650;;;16.6;70
61571;BME280;47463;49.884;10.010;2023-06-26T00:50:01;101660;;;16.6;70
61571;BME280;47463;49.884;10.010;2023-06-26T00:55:01;101660;;;16.6;70
61571;BME280;47463;49.884;10.010;2023-06-26T01:00:01;101660;;;16.5;71
61571;BME280;47463;49.884;10.010;2023-06-26T01:05:01;101660;;;16.5;71
61571;BME280;47463;49.884;10.010;2023-06-26T01:10:01;101660;;;16.4;71
61571;BME280;47463;49.884;10.010;2023-06-26T01:15:01;101650;;;16.4;71
61571;BME280;47463;49.884;10.010;2023-06-26T01:20:01;101650;;;16.4;71
61571;BME280;47463;49.884;10.010;2023-06-26T01:25:03;101650;;;16.4;71
61571;BME280;47463;49.884;10.010;2023-06-26T01:30:01;101640;;;16.4;71
61571;BME280;47463;49.884;10.010;2023-06-26T01:35:01;101650;;;16.4;72
61571;BME280;47463;49.884;10.010;2023-06-26T01:40:01;101650;;;16.3;72
61571;BME280;47463;49.884;10.010;2023-06-26T01:45:02;101640;;;16.3;72
61571;BME280;47463;49.884;10.010;2023-06-26T01:50:02;101640;;;16.2;72
61571;BME280;47463;49.884;10.010;2023-06-26T01:55:02;101640;;;16;73
61571;BME280;47463;49.884;10.010;2023-06-26T02:00:01;101640;;;16;73
61571;BME280;47463;49.884;10.010;2023-06-26T02:05:01;101640;;;15.9;74
61571;BME280;47463;49.884;10.010;2023-06-26T02:10:01;101640;;;15.8;74
61571;BME280;47463;49.884;10.010;2023-06-26T02:15:01;101650;;;15.7;74
61571;BME280;47463;49.884;10.010;2023-06-26T02:20:01;101640;;;15.7;74
61571;BME280;47463;49.884;10.010;2023-06-26T02:25:01;101640;;;15.7;74
61571;BME280;47463;49.884;10.010;2023-06-26T02:30:01;101640;;;15.6;75
61571;BME280;47463;49.884;10.010;2023-06-26T02:35:01;101640;;;15.6;75
61571;BME280;47463;49.884;10.010;2023-06-26T02:40:01;101640;;;15.6;75
61571;BME280;47463;49.884;10.010;2023-06-26T02:45:01;101640;;;15.5;75
61571;BME280;47463;49.884;10.010;2023-06-26T02:50:01;101640;;;15.5;75
61571;BME280;47463;49.884;10.010;2023-06-26T02:55:01;101640;;;15.5;75
61571;BME280;47463;49.884;10.010;2023-06-26T03:00:01;101640;;;15.5;75
61571;BME280;47463;49.884;10.010;2023-06-26T03:05:01;101630;;;15.3;76
61571;BME280;47463;49.884;10.010;2023-06-26T03:10:01;101630;;;15.2;76
61571;BME280;47463;49.884;10.010;2023-06-26T03:15:01;101630;;;15.1;77
61571;BME280;47463;49.884;10.010;2023-06-26T03:20:01;101640;;;15.2;77
61571;BME280;47463;49.884;10.010;2023-06-26T03:25:01;101640;;;15.3;77
61571;BME280;47463;49.884;10.010;2023-06-26T03:30:01;101640;;;15.4;77
61571;BME280;47463;49.884;10.010;2023-06-26T03:35:01;101630;;;15.3;77
61571;BME280;47463;49.884;10.010;2023-06-26T03:40:01;101630;;;15.3;77
61571;BME280;47463;49.884;10.010;2023-06-26T03:45:01;101630;;;15.4;77
61571;BME280;47463;49.884;10.010;2023-06-26T03:50:01;101640;;;15.5;77
61571;BME280;47463;49.884;10.010;2023-06-26T03:55:01;101640;;;15.6;77
61571;BME280;47463;49.884;10.010;2023-06-26T04:00:01;101640;;;15.7;77
61571;BME280;47463;49.884;10.010;2023-06-26T04:05:01;101650;;;15.9;76
61571;BME280;47463;49.884;10.010;2023-06-26T04:10:01;101640;;;16;76
61571;BME280;47463;49.884;10.010;2023-06-26T04:15:01;101640;;;16.1;76
61571;BME280;47463;49.884;10.010;2023-06-26T04:20:01;101650;;;16.7;74
61571;BME280;47463;49.884;10.010;2023-06-26T04:25:02;101640;;;17;73
61571;BME280;47463;49.884;10.010;2023-06-26T04:30:01;101650;;;18;70
61571;BME280;47463;49.884;10.010;2023-06-26T04:35:01;101650;;;18.4;68
61571;BME280;47463;49.884;10.010;2023-06-26T04:40:01;101640;;;19;67
61571;BME280;47463;49.884;10.010;2023-06-26T04:45:01;101650;;;19.6;64
61571;BME280;47463;49.884;10.010;2023-06-26T04:50:01;101640;;;20;63
61571;BME280;47463;49.884;10.010;2023-06-26T04:55:01;101640;;;20.3;62
61571;BME280;47463;49.884;10.010;2023-06-26T05:00:01;101640;;;20.6;61
61571;BME280;47463;49.884;10.010;2023-06-26T05:05:01;101640;;;20.5;61
61571;BME280;47463;49.884;10.010;2023-06-26T05:10:01;101640;;;20;63
61571;BME280;47463;49.884;10.010;2023-06-26T05:15:01;101640;;;19.4;66
61571;BME280;47463;49.884;10.010;2023-06-26T05:20:01;101640;;;19.5;65
61571;BME280;47463;49.884;10.010;2023-06-26T05:25:01;101650;;;19.2;66
61571;BME280;47463;49.884;10.010;2023-06-26T05:30:01;101650;;;19.4;66
61571;BME280;47463;49.884;10.010;2023-06-26T05:35:01;101650;;;19.4;66
61571;BME280;47463;49.884;10.010;2023-06-26T05:40:01;101640;;;19.7;65
61571;BME280;47463;49.884;10.010;2023-06-26T05:45:01;101650;;;19.8;66
61571;BME280;47463;49.884;10.010;2023-06-26T05:50:01;101640;;;20.1;65
61571;BME280;47463;49.884;10.010;2023-06-26T05:55:01;101640;;;20.4;65
61571;BME280;47463;49.884;10.010;2023-06-26T06:00:01;101640;;;21.2;62
61571;BME280;47463;49.884;10.010;2023-06-26T06:05:01;101640;;;21.3;62
61571;BME280;47463;49.884;10.010;2023-06-26T06:10:01;101640;;;21.5;61
61571;BME280;47463;49.884;10.010;2023-06-26T06:15:01;101640;;;21.7;61
61571;BME280;47463;49.884;10.010;2023-06-26T06:20:01;101640;;;21.7;61
61571;BME280;47463;49.884;10.010;2023-06-26T06:25:01;101630;;;22.1;60
61571;BME280;47463;49.884;10.010;2023-06-26T06:30:01;101630;;;22.2;60
61571;BME280;47463;49.884;10.010;2023-06-26T06:35:01;101620;;;22.7;59
61571;BME280;47463;49.884;10.010;2023-06-26T06:40:01;101610;;;23.2;58
61571;BME280;47463;49.884;10.010;2023-06-26T06:45:01;101620;;;23.4;56
61571;BME280;47463;49.884;10.010;2023-06-26T06:50:01;101610;;;23.5;55
61571;BME280;47463;49.884;10.010;2023-06-26T06:55:01;101610;;;23.5;55
61571;BME280;47463;49.884;10.010;2023-06-26T07:00:01;101610;;;23.9;54
61571;BME280;47463;49.884;10.010;2023-06-26T07:05:01;101600;;;23.6;53
61571;BME280;47463;49.884;10.010;2023-06-26T07:10:02;101600;;;23.7;53
61571;BME280;47463;49.884;10.010;2023-06-26T07:15:01;101610;;;23.7;50
61571;BME280;47463;49.884;10.010;2023-06-26T07:20:01;101600;;;23.7;48
61571;BME280;47463;49.884;10.010;2023-06-26T07:25:01;101590;;;23.6;47
61571;BME280;47463;49.884;10.010;2023-06-26T07:30:01;101590;;;23.5;48
61571;BME280;47463;49.884;10.010;2023-06-26T07:35:01;101590;;;23.8;47
61571;BME280;47463;49.884;10.010;2023-06-26T07:40:01;101580;;;23.9;47
61571;BME280;47463;49.884;10.010;2023-06-26T07:45:01;101590;;;24.3;46
61571;BME280;47463;49.884;10.010;2023-06-26T07:50:01;101590;;;24.4;46
61571;BME280;47463;49.884;10.010;2023-06-26T07:55:01;101590;;;24.3;46
61571;BME280;47463;49.884;10.010;2023-06-26T08:00:01;101590;;;24.5;46
61571;BME280;47463;49.884;10.010;2023-06-26T08:05:01;101590;;;25;45
61571;BME280;47463;49.884;10.010;2023-06-26T08:10:01;101570;;;25;44
61571;BME280;47463;49.884;10.010;2023-06-26T08:15:01;101570;;;25.3;44
61571;BME280;47463;49.884;10.010;2023-06-26T08:20:01;101570;;;25.9;43
61571;BME280;47463;49.884;10.010;2023-06-26T08:25:01;101560;;;26.3;42
61571;BME280;47463;49.884;10.010;2023-06-26T08:30:01;101550;;;26.5;42
61571;BME280;47463;49.884;10.010;2023-06-26T08:35:01;101550;;;26.5;42
61571;BME280;47463;49.884;10.010;2023-06-26T08:40:01;101560;;;26.5;42
61571;BME280;47463;49.884;10.010;2023-06-26T08:45:01;101550;;;27.3;41
61571;BME280;47463;49.884;10.010;2023-06-26T08:50:02;101560;;;27.4;40
61571;BME280;47463;49.884;10.010;2023-06-26T08:55:01;101550;;;27.4;40
61571;BME280;47463;49.884;10.010;2023-06-26T09:00:01;101560;;;27.7;39
61571;BME280;47463;49.884;10.010;2023-06-26T09:05:01;101540;;;27.6;39
61571;BME280;47463;49.884;10.010;2023-06-26T09:10:01;101540;;;28.2;39
61571;BME280;47463;49.884;10.010;2023-06-26T09:15:01;101540;;;28;38
61571;BME280;47463;49.884;10.010;2023-06-26T09:20:01;101530;;;28.2;38
61571;BME280;47463;49.884;10.010;2023-06-26T09:25:01;101540;;;28;38
61571;BME280;47463;49.884;10.010;2023-06-26T09:30:01;101540;;;28.4;36
61571;BME280;47463;49.884;10.010;2023-06-26T09:35:01;101530;;;28.6;37
61571;BME280;47463;49.884;10.010;2023-06-26T09:40:01;101530;;;28.6;36
61571;BME280;47463;49.884;10.010;2023-06-26T09:45:01;101540;;;28.7;36
61571;BME280;47463;49.884;10.010;2023-06-26T09:50:02;101520;;;29;36
61571;BME280;47463;49.884;10.010;2023-06-26T09:55:08;101520;;;29.4;35
61571;BME280;47463;49.884;10.010;2023-06-26T10:00:01;101520;;;29.4;34
61571;BME280;47463;49.884;10.010;2023-06-26T10:05:01;101510;;;29.5;34
61571;BME280;47463;49.884;10.010;2023-06-26T10:10:01;101510;;;29.2;34
61571;BME280;47463;49.884;10.010;2023-06-26T10:15:02;101490;;;29.2;34
61571;BME280;47463;49.884;10.010;2023-06-26T10:20:01;101480;;;29.6;33
61571;BME280;47463;49.884;10.010;2023-06-26T10:25:01;101470;;;29.9;32
61571;BME280;47463;49.884;10.010;2023-06-26T10:30:02;101470;;;30;32
61571;BME280;47463;49.884;10.010;2023-06-26T10:35:01;101460;;;30.2;32
61571;BME280;47463;49.884;10.010;2023-06-26T10:40:01;101460;;;30.2;32
61571;BME280;47463;49.884;10.010;2023-06-26T10:45:08;101460;;;30.3;31
61571;BME280;47463;49.884;10.010;2023-06-26T10:50:33;101460;;;30.1;32
61571;BME280;47463;49.884;10.010;2023-06-26T10:55:01;101460;;;30.3;32
61571;BME280;47463;49.884;10.010;2023-06-26T11:00:08;101460;;;30.3;33
61571;BME280;47463;49.884;10.010;2023-06-26T11:05:01;101450;;;30.5;33
61571;BME280;47463;49.884;10.010;2023-06-26T11:10:01;101440;;;30.3;33
61571;BME280;47463;49.884;10.010;2023-06-26T11:15:01;101440;;;30.3;34
61571;BME280;47463;49.884;10.010;2023-06-26T11:20:01;101420;;;30.5;33
61571;BME280;47463;49.884;10.010;2023-06-26T11:25:01;101440;;;30.4;34
61571;BME280;47463;49.884;10.010;2023-06-26T11:30:01;101440;;;30.1;34
61571;BME280;47463;49.884;10.010;2023-06-26T11:35:01;101440;;;29.9;35
61571;BME280;47463;49.884;10.010;2023-06-26T11:40:15;101440;;;29.7;35
61571;BME280;47463;49.884;10.010;2023-06-26T11:45:01;101440;;;30.1;35
61571;BME280;47463;49.884;10.010;2023-06-26T11:50:01;101440;;;30.1;35
61571;BME280;47463;49.884;10.010;2023-06-26T11:55:01;101440;;;29.8;35
61571;BME280;47463;49.884;10.010;2023-06-26T12:00:10;101450;;;29.8;36
61571;BME280;47463;49.884;10.010;2023-06-26T12:05:01;101430;;;30;36
61571;BME280;47463;49.884;10.010;2023-06-26T12:10:01;101430;;;30;36
61571;BME280;47463;49.884;10.010;2023-06-26T12:15:01;101440;;;30;35
61571;BME280;47463;49.884;10.010;2023-06-26T12:20:01;101440;;;29.5;36
61571;BME280;47463;49.884;10.010;2023-06-26T12:25:01;101430;;;30.1;36
61571;BME280;47463;49.884;10.010;2023-06-26T12:30:02;101430;;;29.7;35
61571;BME280;47463;49.884;10.010;2023-06-26T12:35:01;101440;;;29.5;36
61571;BME280;47463;49.884;10.010;2023-06-26T12:40:01;101440;;;28.9;36
61571;BME280;47463;49.884;10.010;2023-06-26T12:45:09;101450;;;28.8;37
61571;BME280;47463;49.884;10.010;2023-06-26T12:50:04;101450;;;28.9;37
61571;BME280;47463;49.884;10.010;2023-06-26T12:55:01;101450;;;29.3;37
61571;BME280;47463;49.884;10.010;2023-06-26T13:00:01;101450;;;29.3;37
61571;BME280;47463;49.884;10.010;2023-06-26T13:05:01;101440;;;28.9;37
61571;BME280;47463;49.884;10.010;2023-06-26T13:10:01;101440;;;29;37
61571;BME280;47463;49.884;10.010;2023-06-26T13:15:01;101440;;;29.1;37
61571;BME280;47463;49.884;10.010;2023-06-26T13:20:01;101440;;;29.4;37
61571;BME280;47463;49.884;10.010;2023-06-26T13:25:01;101430;;;29.1;37
61571;BME280;47463;49.884;10.010;2023-06-26T13:30:01;101430;;;29;38
61571;BME280;47463;49.884;10.010;2023-06-26T13:35:01;101440;;;29.2;38
61571;BME280;47463;49.884;10.010;2023-06-26T13:40:01;101430;;;29.1;38
61571;BME280;47463;49.884;10.010;2023-06-26T13:45:01;101450;;;28.9;38
61571;BME280;47463;49.884;10.010;2023-06-26T13:50:01;101430;;;28.6;38
61571;BME280;47463;49.884;10.010;2023-06-26T13:55:01;101440;;;28.6;38
61571;BME280;47463;49.884;10.010;2023-06-26T14:00:01;101430;;;28.4;38
61571;BME280;47463;49.884;10.010;2023-06-26T14:05:01;101430;;;28.6;38
61571;BME280;47463;49.884;10.010;2023-06-26T14:10:01;101430;;;28.4;39
61571;BME280;47463;49.884;10.010;2023-06-26T14:15:01;101420;;;28.2;39
61571;BME280;47463;49.884;10.010;2023-06-26T14:20:01;101410;;;28.3;39
61571;BME280;47463;49.884;10.010;2023-06-26T14:25:01;101420;;;28.3;39
61571;BME280;47463;49.884;10.010;2023-06-26T14:30:01;101420;;;28.6;38
61571;BME280;47463;49.884;10.010;2023-06-26T14:35:01;101420;;;28.9;38
61571;BME280;47463;49.884;10.010;2023-06-26T14:40:01;101420;;;28.8;37
61571;BME280;47463;49.884;10.010;2023-06-26T14:45:01;101410;;;28.6;37
61571;BME280;47463;49.884;10.010;2023-06-26T14:50:01;101410;;;28.7;37
61571;BME280;47463;49.884;10.010;2023-06-26T14:55:01;101410;;;28.3;37
61571;BME280;47463;49.884;10.010;2023-06-26T15:00:01;101420;;;28;38
61571;BME280;47463;49.884;10.010;2023-06-26T15:05:01;101410;;;27.9;39
61571;BME280;47463;49.884;10.010;2023-06-26T15:10:01;101420;;;27.7;39
61571;BME280;47463;49.884;10.010;2023-06-26T15:15:01;101420;;;27.7;39
61571;BME280;47463;49.884;10.010;2023-06-26T15:20:01;101430;;;27.7;38
61571;BME280;47463;49.884;10.010;2023-06-26T15:25:01;101430;;;27.6;39
61571;BME280;47463;49.884;10.010;2023-06-26T15:30:01;101430;;;27.7;40
61571;BME280;47463;49.884;10.010;2023-06-26T15:35:01;101440;;;27.5;40
61571;BME280;47463;49.884;10.010;2023-06-26T15:40:01;101440;;;27.1;41
61571;BME280;47463;49.884;10.010;2023-06-26T15:45:01;101440;;;26.8;42
61571;BME280;47463;49.884;10.010;2023-06-26T15:50:01;101450;;;26.5;42
61571;BME280;47463;49.884;10.010;2023-06-26T15:55:01;101450;;;26.2;42
61571;BME280;47463;49.884;10.010;2023-06-26T16:00:01;101460;;;26.1;43
61571;BME280;47463;49.884;10.010;2023-06-26T16:05:01;101460;;;26.1;43
61571;BME280;47463;49.884;10.010;2023-06-26T16:10:01;101470;;;26.3;43
61571;BME280;47463;49.884;10.010;2023-06-26T16:15:01;101470;;;26.5;42
61571;BME280;47463;49.884;10.010;2023-06-26T16:20:01;101480;;;26.2;42
61571;BME280;47463;49.884;10.010;2023-06-26T16:25:01;101470;;;26.1;43
61571;BME280;47463;49.884;10.010;2023-06-26T16:30:01;101480;;;26.2;43
61571;BME280;47463;49.884;10.010;2023-06-26T16:35:01;101480;;;26.2;42
61571;BME280;47463;49.884;10.010;2023-06-26T16:40:01;101470;;;26;42
61571;BME280;47463;49.884;10.010;2023-06-26T16:45:01;101480;;;25.7;42
61571;BME280;47463;49.884;10.010;2023-06-26T16:50:01;101480;;;25.8;42
61571;BME280;47463;49.884;10.010;2023-06-26T16:55:01;101490;;;25.6;42
61571;BME280;47463;49.884;10.010;2023-06-26T17:00:01;101490;;;25.5;42
61571;BME280;47463;49.884;10.010;2023-06-26T17:05:01;101490;;;25.2;41
61571;BME280;47463;49.884;10.010;2023-06-26T17:10:01;101500;;;25.3;41
61571;BME280;47463;49.884;10.010;2023-06-26T17:15:01;101500;;;25.2;41
61571;BME280;47463;49.884;10.010;2023-06-26T17:20:01;101510;;;24.9;40
61571;BME280;47463;49.884;10.010;2023-06-26T17:25:01;101510;;;24.8;40
61571;BME280;47463;49.884;10.010;2023-06-26T17:30:01;101520;;;24.7;40
61571;BME280;47463;49.884;10.010;2023-06-26T17:35:01;101530;;;24.7;40
61571;BME280;47463;49.884;10.010;2023-06-26T17:40:01;101540;;;24.6;40
61571;BME280;47463;49.884;10.010;2023-06-26T17:45:01;101550;;;24.6;40
61571;BME280;47463;49.884;10.010;2023-06-26T17:50:01;101550;;;24.4;39
61571;BME280;47463;49.884;10.010;2023-06-26T17:55:01;101560;;;24.3;39
61571;BME280;47463;49.884;10.010;2023-06-26T18:00:01;101580;;;24.2;39
61571;BME280;47463;49.884;10.010;2023-06-26T18:05:01;101570;;;24;39
61571;BME280;47463;49.884;10.010;2023-06-26T18:10:01;101590;;;23.7;39
61571;BME280;47463;49.884;10.010;2023-06-26T18:15:01;101600;;;23.6;39
61571;BME280;47463;49.884;10.010;2023-06-26T18:20:01;101610;;;23.5;39
61571;BME280;47463;49.884;10.010;2023-06-26T18:25:01;101610;;;23.4;39
61571;BME280;47463;49.884;10.010;2023-06-26T18:30:01;101640;;;23.3;38
61571;BME280;47463;49.884;10.010;2023-06-26T18:35:01;101640;;;23.1;39
61571;BME280;47463;49.884;10.010;2023-06-26T18:40:01;101630;;;23;39
61571;BME280;47463;49.884;10.010;2023-06-26T18:45:01;101650;;;22.8;39
61571;BME280;47463;49.884;10.010;2023-06-26T18:50:01;101670;;;22.6;39
61571;BME280;47463;49.884;10.010;2023-06-26T18:55:01;101670;;;22.6;39
61571;BME280;47463;49.884;10.010;2023-06-26T19:00:01;101670;;;22.4;39
61571;BME280;47463;49.884;10.010;2023-06-26T19:05:01;101700;;;22.2;40
61571;BME280;47463;49.884;10.010;2023-06-26T19:10:01;101700;;;22.1;40
61571;BME280;47463;49.884;10.010;2023-06-26T19:15:01;101700;;;22;40
61571;BME280;47463;49.884;10.010;2023-06-26T19:20:01;101710;;;21.9;40
61571;BME280;47463;49.884;10.010;2023-06-26T19:25:01;101720;;;21.8;41
61571;BME280;47463;49.884;10.010;2023-06-26T19:30:01;101720;;;21.7;41
61571;BME280;47463;49.884;10.010;2023-06-26T19:35:01;101730;;;21.7;41
61571;BME280;47463;49.884;10.010;2023-06-26T19:40:01;101740;;;21.5;41
61571;BME280;47463;49.884;10.010;2023-06-26T19:45:01;101750;;;21.4;41
61571;BME280;47463;49.884;10.010;2023-06-26T19:50:01;101760;;;21.3;42
61571;BME280;47463;49.884;10.010;2023-06-26T19:55:01;101760;;;21.1;42
61571;BME280;47463;49.884;10.010;2023-06-26T20:00:02;101770;;;21;43
61571;BME280;47463;49.884;10.010;2023-06-26T20:05:01;101780;;;21;43
61571;BME280;47463;49.884;10.010;2023-06-26T20:10:01;101780;;;20.9;43
61571;BME280;47463;49.884;10.010;2023-06-26T20:15:01;101800;;;20.8;43
61571;BME280;47463;49.884;10.010;2023-06-26T20:20:01;101810;;;20.8;43
61571;BME280;47463;49.884;10.010;2023-06-26T20:25:01;101830;;;20.7;43
61571;BME280;47463;49.884;10.010;2023-06-26T20:30:01;101820;;;20.6;42
61571;BME280;47463;49.884;10.010;2023-06-26T20:35:01;101840;;;20.6;42
61571;BME280;47463;49.884;10.010;2023-06-26T20:40:01;101850;;;20.5;41
61571;BME280;47463;49.884;10.010;2023-06-26T20:46:05;101860;;;20.5;41
61571;BME280;47463;49.884;10.010;2023-06-26T20:50:01;101860;;;20.4;41
61571;BME280;47463;49.884;10.010;2023-06-26T20:55:01;101860;;;20.4;41
61571;BME280;47463;49.884;10.010;2023-06-26T21:00:01;101860;;;20.2;41
61571;BME280;47463;49.884;10.010;2023-06-26T21:05:01;101880;;;20.1;42
61571;BME280;47463;49.884;10.010;2023-06-26T21:10:01;101890;;;20;42
61571;BME280;47463;49.884;10.010;2023-06-26T21:15:01;101890;;;19.9;42
61571;BME280;47463;49.884;10.010;2023-06-26T21:20:01;101890;;;19.8;42
61571;BME280;47463;49.884;10.010;2023-06-26T21:25:01;101890;;;19.8;42
61571;BME280;47463;49.884;10.010;2023-06-26T21:30:01;101890;;;19.6;42
61571;BME280;47463;49.884;10.010;2023-06-26T21:35:01;101900;;;19.6;42
61571;BME280;47463;49.884;10.010;2023-06-26T21:40:01;101900;;;19.5;43
61571;BME280;47463;49.884;10.010;2023-06-26T21:45:01;101910;;;19.4;43
61571;BME280;47463;49.884;10.010;2023-06-26T21:50:01;101910;;;19.3;43
61571;BME280;47463;49.884;10.010;2023-06-26T21:55:01;101910;;;19.3;43
61571;BME280;47463;49.884;10.010;2023-06-26T22:00:01;101920;;;19.3;43
61571;BME280;47463;49.884;10.010;2023-06-26T22:05:01;101930;;;19.3;43
61571;BME280;47463;49.884;10.010;2023-06-26T22:10:01;101930;;;19.2;43
61571;BME280;47463;49.884;10.010;2023-06-26T22:15:01;101940;;;19.1;43
61571;BME280;47463;49.884;10.010;2023-06-26T22:20:01;101950;;;19.1;43
61571;BME280;47463;49.884;10.010;2023-06-26T22:25:01;101950;;;19;44
61571;BME280;47463;49.884;10.010;2023-06-26T22:30:01;101950;;;18.9;44
61571;BME280;47463;49.884;10.010;2023-06-26T22:35:01;101960;;;18.7;44
61571;BME280;47463;49.884;10.010;2023-06-26T22:40:01;101960;;;18.6;45
61571;BME280;47463;49.884;10.010;2023-06-26T22:45:01;101960;;;18.5;45
61571;BME280;47463;49.884;10.010;2023-06-26T22:50:01;101960;;;18.4;45
61571;BME280;47463;49.884;10.010;2023-06-26T22:55:01;101970;;;18.3;45
61571;BME280;47463;49.884;10.010;2023-06-26T23:00:01;101950;;;18.1;46
61571;BME280;47463;49.884;10.010;2023-06-26T23:05:01;101960;;;18;47
61571;BME280;47463;49.884;10.010;2023-06-26T23:10:01;101970;;;17.8;47
61571;BME280;47463;49.884;10.010;2023-06-26T23:15:01;101960;;;17.8;47
61571;BME280;47463;49.884;10.010;2023-06-26T23:20:01;101970;;;17.7;47
61571;BME280;47463;49.884;10.010;2023-06-26T23:25:01;101970;;;17.5;48
61571;BME280;47463;49.884;10.010;2023-06-26T23:30:01;101970;;;17.5;48
61571;BME280;47463;49.884;10.010;2023-06-26T23:35:01;101970;;;17.4;48
61571;BME280;47463;49.884;10.010;2023-06-26T23:40:01;101980;;;17.3;48
61571;BME280;47463;49.884;10.010;2023-06-26T23:45:01;101980;;;17.2;49
61571;BME280;47463;49.884;10.010;2023-06-26T23:50:01;101980;;;17.1;49
61571;BME280;47463;49.884;10.010;2023-06-26T23:55:01;101990;;;17.1;49
